PWSweather.com
Personal Weather Stations
Station Observations
IHTIMAN1
Neighbourhood 1, IhtimanBG 2050

Neighbourhood 1IhtimanBG 2050

Lat: 42.436852, Lon: 23.817921

Elevation: 2066

Station Type: Oregon Scientific WMR968

http://ihtiman-meteo.com

High Low Average
Temperature 72.4°F22.4°C 40.1°F4.5°C 58.3°F14.6°C
Dew Point 49.6°F9.8°C 39.1°F3.9°C 45.7°F7.6°C
Winds 10.4 mph 16.7 kmh Calm Calm 4.0 mph SSE6.4 kmh SSE
Wind Gusts 15.0 mph24.1 kmh -- 5.0 mph8.0 kmh
Humidity 98% 43% 66%
Pressure 30.00 in1015.9 mb 29.94 in1013.9 mb -
Precipitation 0.00 in0.0 mm - -
Hour Temp Dew Point Humidity Winds Wind Gusts Pressure Precip Precip Rate Daily Precip Total
12:00 AM 47.5°F8.6°C 42.9°F6.1°C 84% Calm Calm -- 29.97 in1014.9 mb - 0.00 in0.0 mm 0.00 in0.0 mm
12:10 AM 47.5°F8.6°C 42.9°F6.1°C 84% Calm Calm 3.5 mph5.6 kmh 29.97 in1014.9 mb - 0.00 in0.0 mm 0.00 in0.0 mm
12:20 AM 47.0°F8.3°C 42.8°F6.0°C 85% Calm Calm -- 29.97 in1014.9 mb - 0.00 in0.0 mm 0.00 in0.0 mm
12:30 AM 46.4°F8.0°C 42.1°F5.6°C 85% Calm Calm -- 29.97 in1014.9 mb - 0.00 in0.0 mm 0.00 in0.0 mm
12:40 AM 46.0°F7.8°C 41.8°F5.4°C 85% Calm Calm -- 29.97 in1014.9 mb - 0.00 in0.0 mm 0.00 in0.0 mm
12:50 AM 45.9°F7.7°C 41.9°F5.5°C 86% Calm Calm -- 29.97 in1014.9 mb - 0.00 in0.0 mm 0.00 in0.0 mm
01:00 AM 45.7°F7.6°C 42.0°F5.6°C 87% Calm Calm -- 29.97 in1014.9 mb - 0.00 in0.0 mm 0.00 in0.0 mm
01:10 AM 45.7°F7.6°C 42.0°F5.6°C 87% Calm Calm -- 29.97 in1014.9 mb - 0.00 in0.0 mm 0.00 in0.0 mm
01:20 AM 45.7°F7.6°C 42.3°F5.7°C 88% Calm Calm -- 29.97 in1014.9 mb - 0.00 in0.0 mm 0.00 in0.0 mm
01:30 AM 45.5°F7.5°C 42.4°F5.8°C 89% Calm Calm -- 29.97 in1014.9 mb - 0.00 in0.0 mm 0.00 in0.0 mm
01:40 AM 45.0°F7.2°C 41.9°F5.5°C 89% Calm Calm -- 29.97 in1014.9 mb - 0.00 in0.0 mm 0.00 in0.0 mm
01:50 AM 44.4°F6.9°C 41.7°F5.4°C 90% Calm Calm -- 29.97 in1014.9 mb - 0.00 in0.0 mm 0.00 in0.0 mm
02:00 AM 44.1°F6.7°C 41.3°F5.2°C 90% Calm Calm -- 29.97 in1014.9 mb - 0.00 in0.0 mm 0.00 in0.0 mm
02:10 AM 44.1°F6.7°C 41.3°F5.2°C 90% Calm Calm -- 29.97 in1014.9 mb - 0.00 in0.0 mm 0.00 in0.0 mm
02:20 AM 43.9°F6.6°C 41.4°F5.2°C 91% Calm Calm -- 29.97 in1014.9 mb - 0.00 in0.0 mm 0.00 in0.0 mm
02:30 AM 43.7°F6.5°C 41.2°F5.1°C 91% Calm Calm -- 29.97 in1014.9 mb - 0.00 in0.0 mm 0.00 in0.0 mm
02:40 AM 43.3°F6.3°C 41.2°F5.1°C 92% Calm Calm -- 29.97 in1014.9 mb - 0.00 in0.0 mm 0.00 in0.0 mm
02:50 AM 43.2°F6.2°C 41.0°F5.0°C 92% Calm Calm 3.5 mph5.6 kmh 29.97 in1014.9 mb - 0.00 in0.0 mm 0.00 in0.0 mm
03:00 AM 43.0°F6.1°C 40.8°F4.9°C 92% Calm Calm -- 29.97 in1014.9 mb - 0.00 in0.0 mm 0.00 in0.0 mm
03:10 AM 42.9°F6.1°C 41.0°F5.0°C 93% Calm Calm -- 29.97 in1014.9 mb - 0.00 in0.0 mm 0.00 in0.0 mm
03:20 AM 42.8°F6.0°C 40.9°F4.9°C 93% Calm Calm -- 29.97 in1014.9 mb - 0.00 in0.0 mm 0.00 in0.0 mm
03:30 AM 42.8°F6.0°C 40.9°F4.9°C 93% Calm Calm 3.5 mph5.6 kmh 29.97 in1014.9 mb - 0.00 in0.0 mm 0.00 in0.0 mm
03:40 AM 42.6°F5.9°C 41.0°F5.0°C 94% Calm Calm -- 29.97 in1014.9 mb - 0.00 in0.0 mm 0.00 in0.0 mm
03:50 AM 42.0°F5.6°C 40.4°F4.7°C 94% Calm Calm -- 29.97 in1014.9 mb - 0.00 in0.0 mm 0.00 in0.0 mm
04:00 AM 41.4°F5.2°C 39.8°F4.3°C 94% Calm Calm -- 29.97 in1014.9 mb - 0.00 in0.0 mm 0.00 in0.0 mm
04:10 AM 40.9°F4.9°C 39.3°F4.1°C 94% Calm Calm -- 29.97 in1014.9 mb - 0.00 in0.0 mm 0.00 in0.0 mm
04:20 AM 40.8°F4.9°C 39.5°F4.2°C 95% Calm Calm -- 29.97 in1014.9 mb - 0.00 in0.0 mm 0.00 in0.0 mm
04:30 AM 41.0°F5.0°C 39.4°F4.1°C 94% Calm Calm -- 29.97 in1014.9 mb - 0.00 in0.0 mm 0.00 in0.0 mm
04:40 AM 41.0°F5.0°C 39.7°F4.3°C 95% Calm Calm -- 29.97 in1014.9 mb - 0.00 in0.0 mm 0.00 in0.0 mm
04:50 AM 41.0°F5.0°C 39.7°F4.3°C 95% Calm Calm -- 29.97 in1014.9 mb - 0.00 in0.0 mm 0.00 in0.0 mm
05:00 AM 40.8°F4.9°C 39.8°F4.3°C 96% Calm Calm -- 29.97 in1014.9 mb - 0.00 in0.0 mm 0.00 in0.0 mm
05:10 AM 40.5°F4.7°C 39.4°F4.1°C 96% Calm Calm -- 29.97 in1014.9 mb - 0.00 in0.0 mm 0.00 in0.0 mm
05:20 AM 40.3°F4.6°C 39.2°F4.0°C 96% Calm Calm -- 29.97 in1014.9 mb - 0.00 in0.0 mm 0.00 in0.0 mm
05:30 AM 40.5°F4.7°C 39.4°F4.1°C 96% Calm Calm -- 29.97 in1014.9 mb - 0.00 in0.0 mm 0.00 in0.0 mm
05:40 AM 40.3°F4.6°C 39.3°F4.1°C 96% Calm Calm -- 29.97 in1014.9 mb - 0.00 in0.0 mm 0.00 in0.0 mm
05:50 AM 40.1°F4.5°C 39.1°F3.9°C 96% Calm Calm -- 29.97 in1014.9 mb - 0.00 in0.0 mm 0.00 in0.0 mm
06:00 AM 40.1°F4.5°C 39.1°F3.9°C 96% Calm Calm -- 29.97 in1014.9 mb - 0.00 in0.0 mm 0.00 in0.0 mm
06:10 AM 40.4°F4.7°C 39.7°F4.3°C 97% Calm Calm -- 29.97 in1014.9 mb - 0.00 in0.0 mm 0.00 in0.0 mm
06:20 AM 41.0°F5.0°C 40.2°F4.6°C 97% Calm Calm -- 29.97 in1014.9 mb - 0.00 in0.0 mm 0.00 in0.0 mm
06:30 AM 41.5°F5.3°C 41.0°F5.0°C 98% Calm Calm -- 30.00 in1015.9 mb - 0.00 in0.0 mm 0.00 in0.0 mm
06:40 AM 42.5°F5.8°C 41.9°F5.5°C 98% Calm Calm -- 30.00 in1015.9 mb - 0.00 in0.0 mm 0.00 in0.0 mm
06:50 AM 43.7°F6.5°C 43.1°F6.2°C 98% Calm Calm -- 30.00 in1015.9 mb - 0.00 in0.0 mm 0.00 in0.0 mm
07:00 AM 44.5°F6.9°C 43.9°F6.6°C 98% Calm Calm -- 30.00 in1015.9 mb - 0.00 in0.0 mm 0.00 in0.0 mm
07:10 AM 45.7°F7.6°C 45.2°F7.3°C 98% Calm Calm -- 30.00 in1015.9 mb - 0.00 in0.0 mm 0.00 in0.0 mm
07:20 AM 47.1°F8.4°C 46.0°F7.8°C 96% Calm Calm -- 30.00 in1015.9 mb - 0.00 in0.0 mm 0.00 in0.0 mm
07:30 AM 49.3°F9.6°C 47.6°F8.7°C 94% Calm Calm 3.5 mph5.6 kmh 30.00 in1015.9 mb - 0.00 in0.0 mm 0.00 in0.0 mm
07:40 AM 50.1°F10.1°C 46.7°F8.2°C 88% Calm Calm -- 30.00 in1015.9 mb - 0.00 in0.0 mm 0.00 in0.0 mm
07:50 AM 50.7°F10.4°C 45.7°F7.6°C 83% 1.2 mph SSE1.9 kmh SSE 2.3 mph3.7 kmh 30.00 in1015.9 mb - 0.00 in0.0 mm 0.00 in0.0 mm
08:00 AM 52.3°F11.3°C 46.4°F8.0°C 80% Calm Calm 2.3 mph3.7 kmh 30.00 in1015.9 mb - 0.00 in0.0 mm 0.00 in0.0 mm
08:10 AM 53.9°F12.2°C 46.1°F7.8°C 75% Calm Calm -- 30.00 in1015.9 mb - 0.00 in0.0 mm 0.00 in0.0 mm
08:20 AM 55.1°F12.8°C 47.0°F8.3°C 74% 2.3 mph S3.7 kmh S 3.5 mph5.6 kmh 30.00 in1015.9 mb - 0.00 in0.0 mm 0.00 in0.0 mm
08:30 AM 55.5°F13.1°C 46.6°F8.1°C 72% 1.2 mph SSW1.9 kmh SSW 2.3 mph3.7 kmh 30.00 in1015.9 mb - 0.00 in0.0 mm 0.00 in0.0 mm
08:40 AM 57.4°F14.1°C 47.7°F8.7°C 70% Calm Calm -- 30.00 in1015.9 mb - 0.00 in0.0 mm 0.00 in0.0 mm
08:50 AM 58.5°F14.7°C 47.9°F8.8°C 68% Calm Calm -- 30.00 in1015.9 mb - 0.00 in0.0 mm 0.00 in0.0 mm
09:00 AM 60.3°F15.7°C 49.3°F9.6°C 67% 4.6 mph SSE7.4 kmh SSE 5.8 mph9.3 kmh 29.97 in1014.9 mb - 0.00 in0.0 mm 0.00 in0.0 mm
09:10 AM 62.7°F17.1°C 49.1°F9.5°C 61% 4.6 mph SSE7.4 kmh SSE 5.8 mph9.3 kmh 29.97 in1014.9 mb - 0.00 in0.0 mm 0.00 in0.0 mm
09:20 AM 63.7°F17.6°C 48.2°F9.0°C 57% 4.6 mph SSE7.4 kmh SSE 5.8 mph9.3 kmh 29.97 in1014.9 mb - 0.00 in0.0 mm 0.00 in0.0 mm
09:30 AM 64.3°F17.9°C 47.3°F8.5°C 54% 4.6 mph SE7.4 kmh SE 8.1 mph13.0 kmh 29.97 in1014.9 mb - 0.00 in0.0 mm 0.00 in0.0 mm
09:40 AM 63.0°F17.2°C 45.1°F7.3°C 52% 5.8 mph SE9.3 kmh SE 8.1 mph13.0 kmh 29.97 in1014.9 mb - 0.00 in0.0 mm 0.00 in0.0 mm
09:50 AM 65.1°F18.4°C 46.5°F8.1°C 51% 8.1 mph SE13.0 kmh SE 10.4 mph16.7 kmh 29.97 in1014.9 mb - 0.00 in0.0 mm 0.00 in0.0 mm
10:00 AM 66.4°F19.1°C 47.2°F8.4°C 50% 6.9 mph SSE11.1 kmh SSE 9.2 mph14.8 kmh 29.97 in1014.9 mb - 0.00 in0.0 mm 0.00 in0.0 mm
10:10 AM 65.9°F18.8°C 46.7°F8.2°C 50% 4.6 mph SE7.4 kmh SE 5.8 mph9.3 kmh 29.97 in1014.9 mb - 0.00 in0.0 mm 0.00 in0.0 mm
10:20 AM 66.5°F19.2°C 46.7°F8.2°C 49% 5.8 mph SE9.3 kmh SE 5.8 mph9.3 kmh 29.97 in1014.9 mb - 0.00 in0.0 mm 0.00 in0.0 mm
10:30 AM 67.1°F19.5°C 46.7°F8.2°C 48% 4.6 mph E7.4 kmh E 5.8 mph9.3 kmh 29.97 in1014.9 mb - 0.00 in0.0 mm 0.00 in0.0 mm
10:40 AM 68.4°F20.2°C 47.9°F8.8°C 48% 4.6 mph SE7.4 kmh SE 8.1 mph13.0 kmh 29.97 in1014.9 mb - 0.00 in0.0 mm 0.00 in0.0 mm
10:50 AM 68.1°F20.1°C 47.1°F8.4°C 47% 4.6 mph SE7.4 kmh SE 10.4 mph16.7 kmh 29.97 in1014.9 mb - 0.00 in0.0 mm 0.00 in0.0 mm
11:00 AM 68.9°F20.5°C 47.9°F8.8°C 47% 2.3 mph SE3.7 kmh SE 8.1 mph13.0 kmh 29.97 in1014.9 mb - 0.00 in0.0 mm 0.00 in0.0 mm
11:10 AM 68.1°F20.1°C 46.5°F8.1°C 46% 5.8 mph ESE9.3 kmh ESE 8.1 mph13.0 kmh 29.97 in1014.9 mb - 0.00 in0.0 mm 0.00 in0.0 mm
11:20 AM 67.8°F19.9°C 46.8°F8.2°C 47% 6.9 mph SE11.1 kmh SE 8.1 mph13.0 kmh 29.97 in1014.9 mb - 0.00 in0.0 mm 0.00 in0.0 mm
11:30 AM 69.2°F20.7°C 48.1°F8.9°C 47% 6.9 mph S11.1 kmh S 8.1 mph13.0 kmh 29.97 in1014.9 mb - 0.00 in0.0 mm 0.00 in0.0 mm
11:40 AM 68.8°F20.4°C 47.1°F8.4°C 46% 5.8 mph SE9.3 kmh SE 8.1 mph13.0 kmh 29.97 in1014.9 mb - 0.00 in0.0 mm 0.00 in0.0 mm
11:50 AM 67.8°F19.9°C 47.4°F8.6°C 48% 4.6 mph SE7.4 kmh SE 5.8 mph9.3 kmh 29.97 in1014.9 mb - 0.00 in0.0 mm 0.00 in0.0 mm
12:00 PM 67.1°F19.5°C 46.7°F8.2°C 48% 6.9 mph SE11.1 kmh SE 10.4 mph16.7 kmh 29.97 in1014.9 mb - 0.00 in0.0 mm 0.00 in0.0 mm
12:10 PM 68.4°F20.2°C 47.9°F8.8°C 48% 5.8 mph SE9.3 kmh SE 5.8 mph9.3 kmh 29.97 in1014.9 mb - 0.00 in0.0 mm 0.00 in0.0 mm
12:20 PM 68.7°F20.4°C 47.7°F8.7°C 47% 6.9 mph SE11.1 kmh SE 11.5 mph18.5 kmh 29.97 in1014.9 mb - 0.00 in0.0 mm 0.00 in0.0 mm
12:30 PM 68.8°F20.4°C 47.7°F8.7°C 47% 8.1 mph SE13.0 kmh SE 9.2 mph14.8 kmh 29.97 in1014.9 mb - 0.00 in0.0 mm 0.00 in0.0 mm
12:40 PM 68.7°F20.4°C 47.7°F8.7°C 47% 6.9 mph ESE11.1 kmh ESE 9.2 mph14.8 kmh 29.97 in1014.9 mb - 0.00 in0.0 mm 0.00 in0.0 mm
12:50 PM 68.7°F20.4°C 47.7°F8.7°C 47% 8.1 mph SE13.0 kmh SE 11.5 mph18.5 kmh 29.97 in1014.9 mb - 0.00 in0.0 mm 0.00 in0.0 mm
01:00 PM 70.5°F21.4°C 48.1°F8.9°C 45% 5.8 mph SE9.3 kmh SE 8.1 mph13.0 kmh 29.97 in1014.9 mb - 0.00 in0.0 mm 0.00 in0.0 mm
01:10 PM 71.8°F22.1°C 48.7°F9.3°C 44% 6.9 mph E11.1 kmh E 10.4 mph16.7 kmh 29.97 in1014.9 mb - 0.00 in0.0 mm 0.00 in0.0 mm
01:20 PM 69.7°F20.9°C 47.4°F8.6°C 45% 4.6 mph SE7.4 kmh SE 11.5 mph18.5 kmh 29.97 in1014.9 mb - 0.00 in0.0 mm 0.00 in0.0 mm
01:30 PM 72.1°F22.3°C 49.6°F9.8°C 45% 5.8 mph E9.3 kmh E 10.4 mph16.7 kmh 29.97 in1014.9 mb - 0.00 in0.0 mm 0.00 in0.0 mm
01:40 PM 72.4°F22.4°C 49.3°F9.6°C 44% 6.9 mph SE11.1 kmh SE 9.2 mph14.8 kmh 29.97 in1014.9 mb - 0.00 in0.0 mm 0.00 in0.0 mm
01:50 PM 71.3°F21.8°C 48.2°F9.0°C 44% 6.9 mph ESE11.1 kmh ESE 10.4 mph16.7 kmh 29.97 in1014.9 mb - 0.00 in0.0 mm 0.00 in0.0 mm
02:00 PM 70.7°F21.5°C 48.3°F9.1°C 45% 5.8 mph ESE9.3 kmh ESE 9.2 mph14.8 kmh 29.97 in1014.9 mb - 0.00 in0.0 mm 0.00 in0.0 mm
02:10 PM 70.4°F21.3°C 48.0°F8.9°C 45% 9.2 mph SE14.8 kmh SE 12.7 mph20.4 kmh 29.97 in1014.9 mb - 0.00 in0.0 mm 0.00 in0.0 mm
02:20 PM 70.3°F21.3°C 47.9°F8.8°C 45% 10.4 mph SE16.7 kmh SE 12.7 mph20.4 kmh 29.97 in1014.9 mb - 0.00 in0.0 mm 0.00 in0.0 mm
02:30 PM 70.6°F21.4°C 48.2°F9.0°C 45% 6.9 mph SE11.1 kmh SE 11.5 mph18.5 kmh 29.97 in1014.9 mb - 0.00 in0.0 mm 0.00 in0.0 mm
02:40 PM 72.1°F22.3°C 49.0°F9.4°C 44% 4.6 mph SE7.4 kmh SE 10.4 mph16.7 kmh 29.97 in1014.9 mb - 0.00 in0.0 mm 0.00 in0.0 mm
02:50 PM 70.8°F21.6°C 47.8°F8.8°C 44% 8.1 mph SE13.0 kmh SE 10.4 mph16.7 kmh 29.97 in1014.9 mb - 0.00 in0.0 mm 0.00 in0.0 mm
03:00 PM 71.3°F21.8°C 47.6°F8.7°C 43% 6.9 mph SE11.1 kmh SE 11.5 mph18.5 kmh 29.97 in1014.9 mb - 0.00 in0.0 mm 0.00 in0.0 mm
03:10 PM 69.6°F20.9°C 46.7°F8.2°C 44% 9.2 mph SE14.8 kmh SE 15.0 mph24.1 kmh 29.97 in1014.9 mb - 0.00 in0.0 mm 0.00 in0.0 mm
03:20 PM 70.1°F21.2°C 47.8°F8.8°C 45% 8.1 mph SE13.0 kmh SE 12.7 mph20.4 kmh 29.97 in1014.9 mb - 0.00 in0.0 mm 0.00 in0.0 mm
03:30 PM 71.3°F21.8°C 48.9°F9.4°C 45% 6.9 mph SE11.1 kmh SE 8.1 mph13.0 kmh 29.97 in1014.9 mb - 0.00 in0.0 mm 0.00 in0.0 mm
03:40 PM 71.3°F21.8°C 48.8°F9.3°C 45% 8.1 mph SE13.0 kmh SE 12.7 mph20.4 kmh 29.97 in1014.9 mb - 0.00 in0.0 mm 0.00 in0.0 mm
03:50 PM 71.4°F21.9°C 48.9°F9.4°C 45% 6.9 mph SE11.1 kmh SE 10.4 mph16.7 kmh 29.97 in1014.9 mb - 0.00 in0.0 mm 0.00 in0.0 mm
04:00 PM 72.0°F22.2°C 48.8°F9.3°C 44% 6.9 mph SE11.1 kmh SE 10.4 mph16.7 kmh 29.94 in1013.9 mb - 0.00 in0.0 mm 0.00 in0.0 mm
04:10 PM 71.7°F22.1°C 48.6°F9.2°C 44% 9.2 mph SE14.8 kmh SE 15.0 mph24.1 kmh 29.94 in1013.9 mb - 0.00 in0.0 mm 0.00 in0.0 mm
04:20 PM 71.4°F21.9°C 48.9°F9.4°C 45% 8.1 mph SE13.0 kmh SE 11.5 mph18.5 kmh 29.97 in1014.9 mb - 0.00 in0.0 mm 0.00 in0.0 mm
04:30 PM 70.5°F21.4°C 47.5°F8.6°C 44% 8.1 mph SSE13.0 kmh SSE 12.7 mph20.4 kmh 29.97 in1014.9 mb - 0.00 in0.0 mm 0.00 in0.0 mm
04:40 PM 69.5°F20.8°C 46.7°F8.2°C 44% 9.2 mph SSE14.8 kmh SSE 12.7 mph20.4 kmh 29.97 in1014.9 mb - 0.00 in0.0 mm 0.00 in0.0 mm
04:50 PM 69.9°F21.1°C 47.0°F8.3°C 44% 6.9 mph SSE11.1 kmh SSE 8.1 mph13.0 kmh 29.97 in1014.9 mb - 0.00 in0.0 mm 0.00 in0.0 mm
05:00 PM 69.3°F20.7°C 46.4°F8.0°C 44% 8.1 mph SE13.0 kmh SE 12.7 mph20.4 kmh 29.94 in1013.9 mb - 0.00 in0.0 mm 0.00 in0.0 mm
05:10 PM 68.9°F20.5°C 46.7°F8.2°C 45% 5.8 mph SSE9.3 kmh SSE 12.7 mph20.4 kmh 29.94 in1013.9 mb - 0.00 in0.0 mm 0.00 in0.0 mm
05:20 PM 67.5°F19.7°C 46.6°F8.1°C 47% 8.1 mph SSE13.0 kmh SSE 8.1 mph13.0 kmh 29.94 in1013.9 mb - 0.00 in0.0 mm 0.00 in0.0 mm
05:30 PM 67.6°F19.8°C 47.2°F8.4°C 48% 6.9 mph SSE11.1 kmh SSE 8.1 mph13.0 kmh 29.94 in1013.9 mb - 0.00 in0.0 mm 0.00 in0.0 mm
05:40 PM 67.3°F19.6°C 47.5°F8.6°C 49% 9.2 mph SE14.8 kmh SE 12.7 mph20.4 kmh 29.94 in1013.9 mb - 0.00 in0.0 mm 0.00 in0.0 mm
05:50 PM 67.1°F19.5°C 48.4°F9.1°C 51% 5.8 mph S9.3 kmh S 9.2 mph14.8 kmh 29.94 in1013.9 mb - 0.00 in0.0 mm 0.00 in0.0 mm
06:00 PM 66.9°F19.4°C 48.7°F9.3°C 52% 8.1 mph S13.0 kmh S 11.5 mph18.5 kmh 29.94 in1013.9 mb - 0.00 in0.0 mm 0.00 in0.0 mm
06:10 PM 66.6°F19.2°C 47.9°F8.8°C 51% 5.8 mph SSE9.3 kmh SSE 9.2 mph14.8 kmh 29.94 in1013.9 mb - 0.00 in0.0 mm 0.00 in0.0 mm
06:20 PM 66.4°F19.1°C 48.2°F9.0°C 52% 6.9 mph SSE11.1 kmh SSE 10.4 mph16.7 kmh 29.94 in1013.9 mb - 0.00 in0.0 mm 0.00 in0.0 mm
06:30 PM 66.2°F19.0°C 48.0°F8.9°C 52% 5.8 mph SE9.3 kmh SE 8.1 mph13.0 kmh 29.94 in1013.9 mb - 0.00 in0.0 mm 0.00 in0.0 mm
06:40 PM 65.8°F18.8°C 47.7°F8.7°C 52% 5.8 mph S9.3 kmh S 10.4 mph16.7 kmh 29.94 in1013.9 mb - 0.00 in0.0 mm 0.00 in0.0 mm
06:50 PM 65.7°F18.7°C 48.1°F8.9°C 53% 4.6 mph SSE7.4 kmh SSE 5.8 mph9.3 kmh 29.97 in1014.9 mb - 0.00 in0.0 mm 0.00 in0.0 mm
07:00 PM 65.1°F18.4°C 47.6°F8.7°C 53% 5.8 mph SSE9.3 kmh SSE 5.8 mph9.3 kmh 29.94 in1013.9 mb - 0.00 in0.0 mm 0.00 in0.0 mm
07:10 PM 65.1°F18.4°C 47.6°F8.7°C 53% 4.6 mph SSE7.4 kmh SSE 5.8 mph9.3 kmh 29.94 in1013.9 mb - 0.00 in0.0 mm 0.00 in0.0 mm
07:20 PM 64.4°F18.0°C 47.4°F8.6°C 54% 4.6 mph SSE7.4 kmh SSE 5.8 mph9.3 kmh 29.94 in1013.9 mb - 0.00 in0.0 mm 0.00 in0.0 mm
07:30 PM 64.4°F18.0°C 47.4°F8.6°C 54% 3.5 mph S5.6 kmh S 3.5 mph5.6 kmh 29.97 in1014.9 mb - 0.00 in0.0 mm 0.00 in0.0 mm
07:40 PM 63.9°F17.7°C 47.9°F8.8°C 56% 3.5 mph S5.6 kmh S 3.5 mph5.6 kmh 29.97 in1014.9 mb - 0.00 in0.0 mm 0.00 in0.0 mm
07:50 PM 63.7°F17.6°C 48.2°F9.0°C 57% 3.5 mph S5.6 kmh S 5.8 mph9.3 kmh 29.97 in1014.9 mb - 0.00 in0.0 mm 0.00 in0.0 mm
08:00 PM 63.3°F17.4°C 48.3°F9.1°C 58% 2.3 mph S3.7 kmh S 3.5 mph5.6 kmh 29.97 in1014.9 mb - 0.00 in0.0 mm 0.00 in0.0 mm
08:10 PM 63.0°F17.2°C 48.4°F9.1°C 59% 2.3 mph SSE3.7 kmh SSE 2.3 mph3.7 kmh 29.97 in1014.9 mb - 0.00 in0.0 mm 0.00 in0.0 mm
08:20 PM 62.6°F17.0°C 49.0°F9.4°C 61% Calm Calm -- 29.97 in1014.9 mb - 0.00 in0.0 mm 0.00 in0.0 mm
08:30 PM 62.2°F16.8°C 49.1°F9.5°C 62% 5.8 mph SE9.3 kmh SE 8.1 mph13.0 kmh 29.97 in1014.9 mb - 0.00 in0.0 mm 0.00 in0.0 mm
08:40 PM 62.6°F17.0°C 49.4°F9.7°C 62% 6.9 mph SE11.1 kmh SE 8.1 mph13.0 kmh 29.97 in1014.9 mb - 0.00 in0.0 mm 0.00 in0.0 mm
08:50 PM 62.8°F17.1°C 49.1°F9.5°C 61% 4.6 mph SE7.4 kmh SE 5.8 mph9.3 kmh 29.97 in1014.9 mb - 0.00 in0.0 mm 0.00 in0.0 mm
09:00 PM 62.8°F17.1°C 49.1°F9.5°C 61% 6.9 mph E11.1 kmh E 8.1 mph13.0 kmh 29.97 in1014.9 mb - 0.00 in0.0 mm 0.00 in0.0 mm
09:10 PM 62.8°F17.1°C 49.1°F9.5°C 61% 3.5 mph SE5.6 kmh SE 5.8 mph9.3 kmh 29.97 in1014.9 mb - 0.00 in0.0 mm 0.00 in0.0 mm
09:20 PM 62.6°F17.0°C 48.5°F9.2°C 60% 5.8 mph SE9.3 kmh SE 8.1 mph13.0 kmh 29.97 in1014.9 mb - 0.00 in0.0 mm 0.00 in0.0 mm
09:30 PM 62.6°F17.0°C 48.1°F8.9°C 59% 6.9 mph ESE11.1 kmh ESE 9.2 mph14.8 kmh 29.97 in1014.9 mb - 0.00 in0.0 mm 0.00 in0.0 mm
09:40 PM 62.2°F16.8°C 47.7°F8.7°C 59% 6.9 mph SE11.1 kmh SE 8.1 mph13.0 kmh 29.97 in1014.9 mb - 0.00 in0.0 mm 0.00 in0.0 mm
09:50 PM 61.9°F16.6°C 47.8°F8.8°C 60% 4.6 mph SSE7.4 kmh SSE 5.8 mph9.3 kmh 29.97 in1014.9 mb - 0.00 in0.0 mm 0.00 in0.0 mm
10:00 PM 61.1°F16.2°C 47.6°F8.7°C 61% 4.6 mph SE7.4 kmh SE 5.8 mph9.3 kmh 29.97 in1014.9 mb - 0.00 in0.0 mm 0.00 in0.0 mm
10:10 PM 60.8°F16.0°C 47.2°F8.4°C 61% 5.8 mph E9.3 kmh E 5.8 mph9.3 kmh 29.97 in1014.9 mb - 0.00 in0.0 mm 0.00 in0.0 mm
10:20 PM 60.8°F16.0°C 47.3°F8.5°C 61% 6.9 mph ESE11.1 kmh ESE 9.2 mph14.8 kmh 29.97 in1014.9 mb - 0.00 in0.0 mm 0.00 in0.0 mm
10:30 PM 60.6°F15.9°C 47.1°F8.4°C 61% 5.8 mph SE9.3 kmh SE 9.2 mph14.8 kmh 29.97 in1014.9 mb - 0.00 in0.0 mm 0.00 in0.0 mm
10:40 PM 60.4°F15.8°C 46.9°F8.3°C 61% 4.6 mph SE7.4 kmh SE 8.1 mph13.0 kmh 29.97 in1014.9 mb - 0.00 in0.0 mm 0.00 in0.0 mm
10:50 PM 60.2°F15.7°C 47.1°F8.4°C 62% 4.6 mph SSE7.4 kmh SSE 5.8 mph9.3 kmh 29.97 in1014.9 mb - 0.00 in0.0 mm 0.00 in0.0 mm
11:00 PM 59.9°F15.5°C 46.8°F8.2°C 62% 3.5 mph S5.6 kmh S 5.8 mph9.3 kmh 29.97 in1014.9 mb - 0.00 in0.0 mm 0.00 in0.0 mm
11:10 PM 59.9°F15.5°C 46.8°F8.2°C 62% 4.6 mph S7.4 kmh S 5.8 mph9.3 kmh 29.97 in1014.9 mb - 0.00 in0.0 mm 0.00 in0.0 mm
11:20 PM 59.9°F15.5°C 46.8°F8.2°C 62% 4.6 mph S7.4 kmh S 5.8 mph9.3 kmh 29.97 in1014.9 mb - 0.00 in0.0 mm 0.00 in0.0 mm
11:30 PM 59.9°F15.5°C 46.8°F8.2°C 62% 4.6 mph S7.4 kmh S 5.8 mph9.3 kmh 29.94 in1013.9 mb - 0.00 in0.0 mm 0.00 in0.0 mm
11:40 PM 58.5°F14.7°C 47.9°F8.8°C 68% 4.6 mph S7.4 kmh S 5.8 mph9.3 kmh 29.94 in1013.9 mb - 0.00 in0.0 mm 0.00 in0.0 mm
11:50 PM 58.3°F14.6°C 48.2°F9.0°C 69% 5.8 mph S9.3 kmh S 5.8 mph9.3 kmh 29.97 in1014.9 mb - 0.00 in0.0 mm 0.00 in0.0 mm